sensor_id;sensor_type;location;lat;lon;timestamp;temperature;humidity
9808;DHT22;4943;52.550;13.462;2023-05-07T00:01:24;11.20;99.90
9808;DHT22;4943;52.550;13.462;2023-05-07T00:03:52;11.30;99.90
9808;DHT22;4943;52.550;13.462;2023-05-07T00:06:21;11.30;99.90
9808;DHT22;4943;52.550;13.462;2023-05-07T00:08:49;11.30;99.90
9808;DHT22;4943;52.550;13.462;2023-05-07T00:11:17;11.30;99.90
9808;DHT22;4943;52.550;13.462;2023-05-07T00:13:47;11.30;99.90
9808;DHT22;4943;52.550;13.462;2023-05-07T00:16:15;11.20;99.90
9808;DHT22;4943;52.550;13.462;2023-05-07T00:18:43;11.20;99.90
9808;DHT22;4943;52.550;13.462;2023-05-07T00:21:12;11.20;99.90
9808;DHT22;4943;52.550;13.462;2023-05-07T00:23:40;11.20;99.90
9808;DHT22;4943;52.550;13.462;2023-05-07T00:26:07;11.20;99.90
9808;DHT22;4943;52.550;13.462;2023-05-07T00:28:35;11.20;99.90
9808;DHT22;4943;52.550;13.462;2023-05-07T00:31:05;11.30;99.90
9808;DHT22;4943;52.550;13.462;2023-05-07T00:33:33;11.30;99.90
9808;DHT22;4943;52.550;13.462;2023-05-07T00:36:01;11.30;99.90
9808;DHT22;4943;52.550;13.462;2023-05-07T00:38:29;11.30;99.90
9808;DHT22;4943;52.550;13.462;2023-05-07T00:40:57;11.20;99.90
9808;DHT22;4943;52.550;13.462;2023-05-07T00:43:25;11.30;99.90
9808;DHT22;4943;52.550;13.462;2023-05-07T00:45:54;11.20;99.90
9808;DHT22;4943;52.550;13.462;2023-05-07T00:48:24;11.20;99.90
9808;DHT22;4943;52.550;13.462;2023-05-07T00:50:52;11.30;99.90
9808;DHT22;4943;52.550;13.462;2023-05-07T00:53:21;11.20;99.90
9808;DHT22;4943;52.550;13.462;2023-05-07T00:55:49;11.30;99.90
9808;DHT22;4943;52.550;13.462;2023-05-07T00:58:17;11.30;99.90
9808;DHT22;4943;52.550;13.462;2023-05-07T01:00:45;11.30;99.90
9808;DHT22;4943;52.550;13.462;2023-05-07T01:03:13;11.40;99.90
9808;DHT22;4943;52.550;13.462;2023-05-07T01:05:44;11.40;99.90
9808;DHT22;4943;52.550;13.462;2023-05-07T01:08:14;11.40;99.90
9808;DHT22;4943;52.550;13.462;2023-05-07T01:10:43;11.30;99.90
9808;DHT22;4943;52.550;13.462;2023-05-07T01:13:12;11.30;99.90
9808;DHT22;4943;52.550;13.462;2023-05-07T01:15:42;11.30;99.90
9808;DHT22;4943;52.550;13.462;2023-05-07T01:18:11;11.30;99.90
9808;DHT22;4943;52.550;13.462;2023-05-07T01:20:39;11.20;99.90
9808;DHT22;4943;52.550;13.462;2023-05-07T01:23:11;11.20;99.90
9808;DHT22;4943;52.550;13.462;2023-05-07T01:25:39;11.20;99.90
9808;DHT22;4943;52.550;13.462;2023-05-07T01:28:07;11.20;99.90
9808;DHT22;4943;52.550;13.462;2023-05-07T01:30:36;11.20;99.90
9808;DHT22;4943;52.550;13.462;2023-05-07T01:33:07;11.20;99.90
9808;DHT22;4943;52.550;13.462;2023-05-07T01:35:39;11.20;99.90
9808;DHT22;4943;52.550;13.462;2023-05-07T01:38:09;11.30;99.90
9808;DHT22;4943;52.550;13.462;2023-05-07T01:40:37;11.30;99.90
9808;DHT22;4943;52.550;13.462;2023-05-07T01:43:06;11.30;99.90
9808;DHT22;4943;52.550;13.462;2023-05-07T01:45:35;11.30;99.90
9808;DHT22;4943;52.550;13.462;2023-05-07T01:48:04;11.20;99.90
9808;DHT22;4943;52.550;13.462;2023-05-07T01:50:32;11.20;99.90
9808;DHT22;4943;52.550;13.462;2023-05-07T01:53:01;11.20;99.90
9808;DHT22;4943;52.550;13.462;2023-05-07T01:55:31;11.20;99.90
9808;DHT22;4943;52.550;13.462;2023-05-07T01:57:59;11.20;99.90
9808;DHT22;4943;52.550;13.462;2023-05-07T02:00:27;11.20;99.90
9808;DHT22;4943;52.550;13.462;2023-05-07T02:02:55;11.20;99.90
9808;DHT22;4943;52.550;13.462;2023-05-07T02:05:24;11.10;99.90
9808;DHT22;4943;52.550;13.462;2023-05-07T02:07:52;11.10;99.90
9808;DHT22;4943;52.550;13.462;2023-05-07T02:10:20;11.10;99.90
9808;DHT22;4943;52.550;13.462;2023-05-07T02:12:49;11.10;99.90
9808;DHT22;4943;52.550;13.462;2023-05-07T02:15:17;11.10;99.90
9808;DHT22;4943;52.550;13.462;2023-05-07T02:17:59;11.10;99.90
9808;DHT22;4943;52.550;13.462;2023-05-07T02:20:27;11.10;99.90
9808;DHT22;4943;52.550;13.462;2023-05-07T02:22:56;11.20;99.90
9808;DHT22;4943;52.550;13.462;2023-05-07T02:25:24;11.20;99.90
9808;DHT22;4943;52.550;13.462;2023-05-07T02:27:53;11.20;99.90
9808;DHT22;4943;52.550;13.462;2023-05-07T02:30:21;11.20;99.90
9808;DHT22;4943;52.550;13.462;2023-05-07T02:32:49;11.10;99.90
9808;DHT22;4943;52.550;13.462;2023-05-07T02:35:17;11.20;99.90
9808;DHT22;4943;52.550;13.462;2023-05-07T02:37:45;11.20;99.90
9808;DHT22;4943;52.550;13.462;2023-05-07T02:40:13;11.20;99.90
9808;DHT22;4943;52.550;13.462;2023-05-07T02:42:41;11.20;99.90
9808;DHT22;4943;52.550;13.462;2023-05-07T02:45:11;11.20;99.90
9808;DHT22;4943;52.550;13.462;2023-05-07T02:47:39;11.10;99.90
9808;DHT22;4943;52.550;13.462;2023-05-07T02:50:08;11.20;99.90
9808;DHT22;4943;52.550;13.462;2023-05-07T02:52:36;11.10;99.90
9808;DHT22;4943;52.550;13.462;2023-05-07T02:55:05;11.20;99.90
9808;DHT22;4943;52.550;13.462;2023-05-07T02:57:33;11.10;99.90
9808;DHT22;4943;52.550;13.462;2023-05-07T03:00:12;11.20;99.90
9808;DHT22;4943;52.550;13.462;2023-05-07T03:02:40;11.20;99.90
9808;DHT22;4943;52.550;13.462;2023-05-07T03:05:08;11.20;99.90
9808;DHT22;4943;52.550;13.462;2023-05-07T03:07:37;11.20;99.90
9808;DHT22;4943;52.550;13.462;2023-05-07T03:10:06;11.20;99.90
9808;DHT22;4943;52.550;13.462;2023-05-07T03:12:34;11.10;99.90
9808;DHT22;4943;52.550;13.462;2023-05-07T03:15:02;11.10;99.90
9808;DHT22;4943;52.550;13.462;2023-05-07T03:17:32;11.00;99.90
9808;DHT22;4943;52.550;13.462;2023-05-07T03:20:00;11.10;99.90
9808;DHT22;4943;52.550;13.462;2023-05-07T03:22:28;11.10;99.90
9808;DHT22;4943;52.550;13.462;2023-05-07T03:24:56;11.10;99.90
9808;DHT22;4943;52.550;13.462;2023-05-07T03:27:24;11.10;99.90
9808;DHT22;4943;52.550;13.462;2023-05-07T03:29:52;11.10;99.90
9808;DHT22;4943;52.550;13.462;2023-05-07T03:32:20;11.10;99.90
9808;DHT22;4943;52.550;13.462;2023-05-07T03:34:49;11.10;99.90
9808;DHT22;4943;52.550;13.462;2023-05-07T03:37:18;11.10;99.90
9808;DHT22;4943;52.550;13.462;2023-05-07T03:39:46;11.10;99.90
9808;DHT22;4943;52.550;13.462;2023-05-07T03:42:14;11.00;99.90
9808;DHT22;4943;52.550;13.462;2023-05-07T03:44:43;11.10;99.90
9808;DHT22;4943;52.550;13.462;2023-05-07T03:47:11;11.10;99.90
9808;DHT22;4943;52.550;13.462;2023-05-07T03:49:40;11.00;99.90
9808;DHT22;4943;52.550;13.462;2023-05-07T03:52:09;11.00;99.90
9808;DHT22;4943;52.550;13.462;2023-05-07T03:54:37;11.00;99.90
9808;DHT22;4943;52.550;13.462;2023-05-07T03:57:05;11.00;99.90
9808;DHT22;4943;52.550;13.462;2023-05-07T03:59:33;11.00;99.90
9808;DHT22;4943;52.550;13.462;2023-05-07T04:02:01;11.00;99.90
9808;DHT22;4943;52.550;13.462;2023-05-07T04:04:31;11.00;99.90
9808;DHT22;4943;52.550;13.462;2023-05-07T04:06:59;11.00;99.90
9808;DHT22;4943;52.550;13.462;2023-05-07T04:09:29;11.00;99.90
9808;DHT22;4943;52.550;13.462;2023-05-07T04:11:57;11.00;99.90
9808;DHT22;4943;52.550;13.462;2023-05-07T04:14:25;11.00;99.90
9808;DHT22;4943;52.550;13.462;2023-05-07T04:16:53;11.00;99.90
9808;DHT22;4943;52.550;13.462;2023-05-07T04:19:21;11.00;99.90
9808;DHT22;4943;52.550;13.462;2023-05-07T04:21:49;11.00;99.90
9808;DHT22;4943;52.550;13.462;2023-05-07T04:24:17;11.00;99.90
9808;DHT22;4943;52.550;13.462;2023-05-07T04:26:47;11.00;99.90
9808;DHT22;4943;52.550;13.462;2023-05-07T04:29:15;11.10;99.90
9808;DHT22;4943;52.550;13.462;2023-05-07T04:31:43;11.10;99.90
9808;DHT22;4943;52.550;13.462;2023-05-07T04:34:11;11.10;99.90
9808;DHT22;4943;52.550;13.462;2023-05-07T04:36:39;11.10;99.90
9808;DHT22;4943;52.550;13.462;2023-05-07T04:39:07;11.10;99.90
9808;DHT22;4943;52.550;13.462;2023-05-07T04:41:37;11.10;99.90
9808;DHT22;4943;52.550;13.462;2023-05-07T04:44:06;11.20;99.90
9808;DHT22;4943;52.550;13.462;2023-05-07T04:46:35;11.20;99.90
9808;DHT22;4943;52.550;13.462;2023-05-07T04:49:03;11.20;99.90
9808;DHT22;4943;52.550;13.462;2023-05-07T04:51:32;11.20;99.90
9808;DHT22;4943;52.550;13.462;2023-05-07T04:54:00;11.20;99.90
9808;DHT22;4943;52.550;13.462;2023-05-07T04:56:28;11.20;99.90
9808;DHT22;4943;52.550;13.462;2023-05-07T04:58:56;11.20;99.90
9808;DHT22;4943;52.550;13.462;2023-05-07T05:01:26;11.20;99.90
9808;DHT22;4943;52.550;13.462;2023-05-07T05:03:54;11.30;99.90
9808;DHT22;4943;52.550;13.462;2023-05-07T05:06:22;11.40;99.90
9808;DHT22;4943;52.550;13.462;2023-05-07T05:08:50;11.40;99.90
9808;DHT22;4943;52.550;13.462;2023-05-07T05:11:18;11.40;99.90
9808;DHT22;4943;52.550;13.462;2023-05-07T05:13:46;11.50;99.90
9808;DHT22;4943;52.550;13.462;2023-05-07T05:16:16;11.50;99.90
9808;DHT22;4943;52.550;13.462;2023-05-07T05:18:46;11.60;99.90
9808;DHT22;4943;52.550;13.462;2023-05-07T05:21:14;11.60;99.90
9808;DHT22;4943;52.550;13.462;2023-05-07T05:23:42;11.50;99.90
9808;DHT22;4943;52.550;13.462;2023-05-07T05:26:10;11.60;99.90
9808;DHT22;4943;52.550;13.462;2023-05-07T05:28:38;11.60;99.90
9808;DHT22;4943;52.550;13.462;2023-05-07T05:31:06;11.60;99.90
9808;DHT22;4943;52.550;13.462;2023-05-07T05:33:34;11.80;99.90
9808;DHT22;4943;52.550;13.462;2023-05-07T05:36:04;11.90;99.90
9808;DHT22;4943;52.550;13.462;2023-05-07T05:38:32;12.00;99.90
9808;DHT22;4943;52.550;13.462;2023-05-07T05:41:00;12.10;99.90
9808;DHT22;4943;52.550;13.462;2023-05-07T05:43:28;12.20;99.90
9808;DHT22;4943;52.550;13.462;2023-05-07T05:45:56;12.30;99.90
9808;DHT22;4943;52.550;13.462;2023-05-07T05:48:25;12.40;99.90
9808;DHT22;4943;52.550;13.462;2023-05-07T05:50:53;12.40;99.90
9808;DHT22;4943;52.550;13.462;2023-05-07T05:53:22;12.40;99.90
9808;DHT22;4943;52.550;13.462;2023-05-07T05:55:50;12.50;99.90
9808;DHT22;4943;52.550;13.462;2023-05-07T05:58:18;12.60;99.90
9808;DHT22;4943;52.550;13.462;2023-05-07T06:00:46;12.70;99.90
9808;DHT22;4943;52.550;13.462;2023-05-07T06:03:15;12.80;99.90
9808;DHT22;4943;52.550;13.462;2023-05-07T06:05:43;12.80;99.90
9808;DHT22;4943;52.550;13.462;2023-05-07T06:08:11;12.90;99.90
9808;DHT22;4943;52.550;13.462;2023-05-07T06:10:40;12.90;99.90
9808;DHT22;4943;52.550;13.462;2023-05-07T06:13:08;12.80;99.90
9808;DHT22;4943;52.550;13.462;2023-05-07T06:15:36;12.80;99.90
9808;DHT22;4943;52.550;13.462;2023-05-07T06:18:04;12.90;99.90
9808;DHT22;4943;52.550;13.462;2023-05-07T06:20:33;12.90;99.90
9808;DHT22;4943;52.550;13.462;2023-05-07T06:23:00;13.00;99.90
9808;DHT22;4943;52.550;13.462;2023-05-07T06:25:28;13.00;99.90
9808;DHT22;4943;52.550;13.462;2023-05-07T06:27:58;13.00;99.90
9808;DHT22;4943;52.550;13.462;2023-05-07T06:30:26;13.00;99.90
9808;DHT22;4943;52.550;13.462;2023-05-07T06:32:54;12.90;99.90
9808;DHT22;4943;52.550;13.462;2023-05-07T06:35:22;13.00;99.90
9808;DHT22;4943;52.550;13.462;2023-05-07T06:37:50;13.10;99.90
9808;DHT22;4943;52.550;13.462;2023-05-07T06:40:18;13.10;99.90
9808;DHT22;4943;52.550;13.462;2023-05-07T06:42:46;13.20;99.90
9808;DHT22;4943;52.550;13.462;2023-05-07T06:45:15;13.10;99.90
9808;DHT22;4943;52.550;13.462;2023-05-07T06:47:45;13.10;99.90
9808;DHT22;4943;52.550;13.462;2023-05-07T06:50:13;13.30;99.90
9808;DHT22;4943;52.550;13.462;2023-05-07T06:52:42;13.40;99.90
9808;DHT22;4943;52.550;13.462;2023-05-07T06:55:10;13.50;99.90
9808;DHT22;4943;52.550;13.462;2023-05-07T06:57:38;13.60;99.90
9808;DHT22;4943;52.550;13.462;2023-05-07T07:00:08;13.80;99.90
9808;DHT22;4943;52.550;13.462;2023-05-07T07:02:38;13.80;99.90
9808;DHT22;4943;52.550;13.462;2023-05-07T07:05:07;13.90;99.90
9808;DHT22;4943;52.550;13.462;2023-05-07T07:07:35;13.90;99.90
9808;DHT22;4943;52.550;13.462;2023-05-07T07:10:04;13.80;99.90
9808;DHT22;4943;52.550;13.462;2023-05-07T07:12:32;13.70;99.90
9808;DHT22;4943;52.550;13.462;2023-05-07T07:15:00;13.50;99.90
9808;DHT22;4943;52.550;13.462;2023-05-07T07:17:29;13.50;99.90
9808;DHT22;4943;52.550;13.462;2023-05-07T07:19:58;13.40;99.90
9808;DHT22;4943;52.550;13.462;2023-05-07T07:22:26;13.30;99.90
9808;DHT22;4943;52.550;13.462;2023-05-07T07:24:54;13.30;99.90
9808;DHT22;4943;52.550;13.462;2023-05-07T07:27:22;13.30;99.90
9808;DHT22;4943;52.550;13.462;2023-05-07T07:29:50;13.30;99.90
9808;DHT22;4943;52.550;13.462;2023-05-07T07:32:18;13.40;99.90
9808;DHT22;4943;52.550;13.462;2023-05-07T07:34:46;13.50;99.90
9808;DHT22;4943;52.550;13.462;2023-05-07T07:37:15;13.40;99.90
9808;DHT22;4943;52.550;13.462;2023-05-07T07:39:43;13.40;99.90
9808;DHT22;4943;52.550;13.462;2023-05-07T07:42:11;13.40;99.90
9808;DHT22;4943;52.550;13.462;2023-05-07T07:44:40;13.40;99.90
9808;DHT22;4943;52.550;13.462;2023-05-07T07:47:08;13.40;99.90
9808;DHT22;4943;52.550;13.462;2023-05-07T07:49:36;13.50;99.90
9808;DHT22;4943;52.550;13.462;2023-05-07T07:52:04;13.50;99.90
9808;DHT22;4943;52.550;13.462;2023-05-07T07:54:33;13.50;99.90
9808;DHT22;4943;52.550;13.462;2023-05-07T07:57:01;13.50;99.90
9808;DHT22;4943;52.550;13.462;2023-05-07T07:59:29;13.50;99.90
9808;DHT22;4943;52.550;13.462;2023-05-07T08:01:57;13.50;99.90
9808;DHT22;4943;52.550;13.462;2023-05-07T08:04:25;13.50;99.90
9808;DHT22;4943;52.550;13.462;2023-05-07T08:06:53;13.50;99.90
9808;DHT22;4943;52.550;13.462;2023-05-07T08:09:22;13.50;99.90
9808;DHT22;4943;52.550;13.462;2023-05-07T08:11:52;13.50;99.90
9808;DHT22;4943;52.550;13.462;2023-05-07T08:14:20;13.50;99.90
9808;DHT22;4943;52.550;13.462;2023-05-07T08:16:48;13.50;99.90
9808;DHT22;4943;52.550;13.462;2023-05-07T08:19:17;13.50;99.90
9808;DHT22;4943;52.550;13.462;2023-05-07T08:21:45;13.40;99.90
9808;DHT22;4943;52.550;13.462;2023-05-07T08:24:14;13.40;99.90
9808;DHT22;4943;52.550;13.462;2023-05-07T08:26:43;13.50;99.90
9808;DHT22;4943;52.550;13.462;2023-05-07T08:29:14;13.60;99.90
9808;DHT22;4943;52.550;13.462;2023-05-07T08:31:42;13.60;99.90
9808;DHT22;4943;52.550;13.462;2023-05-07T08:34:10;13.70;99.90
9808;DHT22;4943;52.550;13.462;2023-05-07T08:36:38;13.80;99.90
9808;DHT22;4943;52.550;13.462;2023-05-07T08:39:08;14.00;99.90
9808;DHT22;4943;52.550;13.462;2023-05-07T08:41:36;14.30;99.90
9808;DHT22;4943;52.550;13.462;2023-05-07T08:44:06;14.40;99.90
9808;DHT22;4943;52.550;13.462;2023-05-07T08:46:41;14.50;99.90
9808;DHT22;4943;52.550;13.462;2023-05-07T08:49:10;14.50;99.90
9808;DHT22;4943;52.550;13.462;2023-05-07T08:51:38;14.70;99.90
9808;DHT22;4943;52.550;13.462;2023-05-07T08:54:06;14.80;99.90
9808;DHT22;4943;52.550;13.462;2023-05-07T08:56:35;15.00;99.90
9808;DHT22;4943;52.550;13.462;2023-05-07T08:59:03;15.20;99.90
9808;DHT22;4943;52.550;13.462;2023-05-07T09:01:31;15.40;99.90
9808;DHT22;4943;52.550;13.462;2023-05-07T09:04:00;15.60;99.90
9808;DHT22;4943;52.550;13.462;2023-05-07T09:06:28;15.90;99.90
9808;DHT22;4943;52.550;13.462;2023-05-07T09:08:56;16.10;99.90
9808;DHT22;4943;52.550;13.462;2023-05-07T09:11:27;16.30;99.90
9808;DHT22;4943;52.550;13.462;2023-05-07T09:13:57;16.30;99.90
9808;DHT22;4943;52.550;13.462;2023-05-07T09:16:28;16.30;99.90
9808;DHT22;4943;52.550;13.462;2023-05-07T09:18:59;16.30;99.90
9808;DHT22;4943;52.550;13.462;2023-05-07T09:21:27;16.50;99.90
9808;DHT22;4943;52.550;13.462;2023-05-07T09:23:55;16.60;99.90
9808;DHT22;4943;52.550;13.462;2023-05-07T09:26:24;16.70;99.90
9808;DHT22;4943;52.550;13.462;2023-05-07T09:28:54;16.70;99.90
9808;DHT22;4943;52.550;13.462;2023-05-07T09:31:22;16.60;99.90
9808;DHT22;4943;52.550;13.462;2023-05-07T09:33:52;16.40;99.90
9808;DHT22;4943;52.550;13.462;2023-05-07T09:36:23;16.30;99.90
9808;DHT22;4943;52.550;13.462;2023-05-07T09:38:52;16.20;99.90
9808;DHT22;4943;52.550;13.462;2023-05-07T09:41:20;16.00;99.90
9808;DHT22;4943;52.550;13.462;2023-05-07T09:43:53;16.00;99.90
9808;DHT22;4943;52.550;13.462;2023-05-07T09:46:30;16.10;99.90
9808;DHT22;4943;52.550;13.462;2023-05-07T09:48:58;16.20;99.90
9808;DHT22;4943;52.550;13.462;2023-05-07T09:51:32;16.30;99.90
9808;DHT22;4943;52.550;13.462;2023-05-07T09:54:02;16.20;99.90
9808;DHT22;4943;52.550;13.462;2023-05-07T09:56:32;16.10;99.90
9808;DHT22;4943;52.550;13.462;2023-05-07T09:59:01;16.10;99.90
9808;DHT22;4943;52.550;13.462;2023-05-07T10:01:31;16.10;99.90
9808;DHT22;4943;52.550;13.462;2023-05-07T10:04:02;16.10;99.90
9808;DHT22;4943;52.550;13.462;2023-05-07T10:06:32;16.20;99.90
9808;DHT22;4943;52.550;13.462;2023-05-07T10:09:00;16.40;99.90
9808;DHT22;4943;52.550;13.462;2023-05-07T10:11:29;16.60;99.90
9808;DHT22;4943;52.550;13.462;2023-05-07T10:13:57;16.60;99.90
9808;DHT22;4943;52.550;13.462;2023-05-07T10:16:25;16.60;99.90
9808;DHT22;4943;52.550;13.462;2023-05-07T10:18:55;16.70;99.90
9808;DHT22;4943;52.550;13.462;2023-05-07T10:21:23;16.70;99.90
9808;DHT22;4943;52.550;13.462;2023-05-07T10:23:58;16.90;99.90
9808;DHT22;4943;52.550;13.462;2023-05-07T10:26:29;17.10;99.90
9808;DHT22;4943;52.550;13.462;2023-05-07T10:29:01;17.30;99.90
9808;DHT22;4943;52.550;13.462;2023-05-07T10:31:52;17.50;99.90
9808;DHT22;4943;52.550;13.462;2023-05-07T10:34:26;17.70;99.90
9808;DHT22;4943;52.550;13.462;2023-05-07T10:36:55;17.80;99.90
9808;DHT22;4943;52.550;13.462;2023-05-07T10:39:25;17.90;99.90
9808;DHT22;4943;52.550;13.462;2023-05-07T10:41:54;18.10;99.90
9808;DHT22;4943;52.550;13.462;2023-05-07T10:44:26;18.30;99.90
9808;DHT22;4943;52.550;13.462;2023-05-07T10:47:08;18.30;99.90
9808;DHT22;4943;52.550;13.462;2023-05-07T10:49:51;18.20;99.90
9808;DHT22;4943;52.550;13.462;2023-05-07T10:52:41;18.00;99.90
9808;DHT22;4943;52.550;13.462;2023-05-07T10:55:22;17.90;99.90
9808;DHT22;4943;52.550;13.462;2023-05-07T10:57:52;17.80;99.70
9808;DHT22;4943;52.550;13.462;2023-05-07T11:00:42;17.60;99.60
9808;DHT22;4943;52.550;13.462;2023-05-07T11:03:10;17.60;99.90
9808;DHT22;4943;52.550;13.462;2023-05-07T11:05:38;17.70;99.90
9808;DHT22;4943;52.550;13.462;2023-05-07T11:08:09;17.80;99.90
9808;DHT22;4943;52.550;13.462;2023-05-07T11:10:51;17.90;99.90
9808;DHT22;4943;52.550;13.462;2023-05-07T11:13:42;17.90;99.70
9808;DHT22;4943;52.550;13.462;2023-05-07T11:16:17;17.80;99.60
9808;DHT22;4943;52.550;13.462;2023-05-07T11:18:47;17.70;99.20
9808;DHT22;4943;52.550;13.462;2023-05-07T11:21:32;17.60;99.80
9808;DHT22;4943;52.550;13.462;2023-05-07T11:24:02;17.80;99.90
9808;DHT22;4943;52.550;13.462;2023-05-07T11:26:42;18.00;99.90
9808;DHT22;4943;52.550;13.462;2023-05-07T11:29:12;18.10;99.90
9808;DHT22;4943;52.550;13.462;2023-05-07T11:31:40;18.20;99.80
9808;DHT22;4943;52.550;13.462;2023-05-07T11:34:08;18.30;99.90
9808;DHT22;4943;52.550;13.462;2023-05-07T11:36:42;18.40;99.30
9808;DHT22;4943;52.550;13.462;2023-05-07T11:39:28;18.40;99.50
9808;DHT22;4943;52.550;13.462;2023-05-07T11:41:57;18.40;99.70
9808;DHT22;4943;52.550;13.462;2023-05-07T11:44:25;18.50;99.90
9808;DHT22;4943;52.550;13.462;2023-05-07T11:46:53;18.60;99.30
9808;DHT22;4943;52.550;13.462;2023-05-07T11:49:25;18.80;99.50
9808;DHT22;4943;52.550;13.462;2023-05-07T11:51:53;18.90;99.70
9808;DHT22;4943;52.550;13.462;2023-05-07T11:54:21;19.00;98.60
9808;DHT22;4943;52.550;13.462;2023-05-07T11:56:50;18.90;98.30
9808;DHT22;4943;52.550;13.462;2023-05-07T11:59:18;18.90;98.10
9808;DHT22;4943;52.550;13.462;2023-05-07T12:01:47;18.80;97.60
9808;DHT22;4943;52.550;13.462;2023-05-07T12:04:19;18.70;98.40
9808;DHT22;4943;52.550;13.462;2023-05-07T12:06:48;18.70;97.80
9808;DHT22;4943;52.550;13.462;2023-05-07T12:09:17;18.60;97.60
9808;DHT22;4943;52.550;13.462;2023-05-07T12:11:46;18.40;97.50
9808;DHT22;4943;52.550;13.462;2023-05-07T12:14:15;18.30;97.90
9808;DHT22;4943;52.550;13.462;2023-05-07T12:16:44;18.30;98.30
9808;DHT22;4943;52.550;13.462;2023-05-07T12:19:13;18.30;97.90
9808;DHT22;4943;52.550;13.462;2023-05-07T12:21:41;18.30;97.50
9808;DHT22;4943;52.550;13.462;2023-05-07T12:24:10;18.20;97.70
9808;DHT22;4943;52.550;13.462;2023-05-07T12:26:38;18.20;97.60
9808;DHT22;4943;52.550;13.462;2023-05-07T12:29:07;18.20;97.90
9808;DHT22;4943;52.550;13.462;2023-05-07T12:31:36;18.30;98.20
9808;DHT22;4943;52.550;13.462;2023-05-07T12:34:08;18.30;97.60
9808;DHT22;4943;52.550;13.462;2023-05-07T12:36:39;18.20;97.50
9808;DHT22;4943;52.550;13.462;2023-05-07T12:39:07;18.40;98.20
9808;DHT22;4943;52.550;13.462;2023-05-07T12:41:51;18.60;98.40
9808;DHT22;4943;52.550;13.462;2023-05-07T12:44:22;18.70;97.80
9808;DHT22;4943;52.550;13.462;2023-05-07T12:46:52;18.70;96.90
9808;DHT22;4943;52.550;13.462;2023-05-07T12:49:20;18.60;96.60
9808;DHT22;4943;52.550;13.462;2023-05-07T12:51:51;18.40;96.40
9808;DHT22;4943;52.550;13.462;2023-05-07T12:54:28;18.30;96.50
9808;DHT22;4943;52.550;13.462;2023-05-07T12:57:01;18.20;97.00
9808;DHT22;4943;52.550;13.462;2023-05-07T12:59:33;18.30;97.50
9808;DHT22;4943;52.550;13.462;2023-05-07T13:02:03;18.40;97.30
9808;DHT22;4943;52.550;13.462;2023-05-07T13:04:31;18.50;97.40
9808;DHT22;4943;52.550;13.462;2023-05-07T13:06:59;18.60;97.60
9808;DHT22;4943;52.550;13.462;2023-05-07T13:09:27;18.70;96.70
9808;DHT22;4943;52.550;13.462;2023-05-07T13:11:55;18.80;96.90
9808;DHT22;4943;52.550;13.462;2023-05-07T13:14:26;18.80;96.50
9808;DHT22;4943;52.550;13.462;2023-05-07T13:16:54;18.80;96.40
9808;DHT22;4943;52.550;13.462;2023-05-07T13:19:24;18.80;97.00
9808;DHT22;4943;52.550;13.462;2023-05-07T13:21:52;18.90;96.50
9808;DHT22;4943;52.550;13.462;2023-05-07T13:24:21;18.90;95.90
9808;DHT22;4943;52.550;13.462;2023-05-07T13:26:49;19.00;96.50
9808;DHT22;4943;52.550;13.462;2023-05-07T13:29:17;19.10;96.40
9808;DHT22;4943;52.550;13.462;2023-05-07T13:31:45;19.20;96.60
9808;DHT22;4943;52.550;13.462;2023-05-07T13:34:15;19.30;96.60
9808;DHT22;4943;52.550;13.462;2023-05-07T13:36:44;19.40;95.90
9808;DHT22;4943;52.550;13.462;2023-05-07T13:39:12;19.40;95.70
9808;DHT22;4943;52.550;13.462;2023-05-07T13:41:40;19.40;95.90
9808;DHT22;4943;52.550;13.462;2023-05-07T13:44:08;19.40;95.70
9808;DHT22;4943;52.550;13.462;2023-05-07T13:46:36;19.40;95.10
9808;DHT22;4943;52.550;13.462;2023-05-07T13:49:04;19.30;95.40
9808;DHT22;4943;52.550;13.462;2023-05-07T13:51:32;19.30;95.80
9808;DHT22;4943;52.550;13.462;2023-05-07T13:54:02;19.40;95.90
9808;DHT22;4943;52.550;13.462;2023-05-07T13:56:30;19.50;95.30
9808;DHT22;4943;52.550;13.462;2023-05-07T13:58:59;19.40;94.80
9808;DHT22;4943;52.550;13.462;2023-05-07T14:01:27;19.40;95.00
9808;DHT22;4943;52.550;13.462;2023-05-07T14:03:56;19.30;94.90
9808;DHT22;4943;52.550;13.462;2023-05-07T14:06:24;19.20;94.70
9808;DHT22;4943;52.550;13.462;2023-05-07T14:08:52;19.20;95.30
9808;DHT22;4943;52.550;13.462;2023-05-07T14:11:22;19.20;95.10
9808;DHT22;4943;52.550;13.462;2023-05-07T14:13:50;19.30;94.80
9808;DHT22;4943;52.550;13.462;2023-05-07T14:16:18;19.40;95.40
9808;DHT22;4943;52.550;13.462;2023-05-07T14:18:46;19.60;96.10
9808;DHT22;4943;52.550;13.462;2023-05-07T14:21:14;20.00;96.40
9808;DHT22;4943;52.550;13.462;2023-05-07T14:23:42;20.30;95.60
9808;DHT22;4943;52.550;13.462;2023-05-07T14:26:10;20.40;94.30
9808;DHT22;4943;52.550;13.462;2023-05-07T14:28:39;20.20;93.90
9808;DHT22;4943;52.550;13.462;2023-05-07T14:31:12;20.00;94.30
9808;DHT22;4943;52.550;13.462;2023-05-07T14:33:41;19.90;93.90
9808;DHT22;4943;52.550;13.462;2023-05-07T14:36:08;19.70;93.90
9808;DHT22;4943;52.550;13.462;2023-05-07T14:38:36;19.50;94.00
9808;DHT22;4943;52.550;13.462;2023-05-07T14:41:04;19.40;93.90
9808;DHT22;4943;52.550;13.462;2023-05-07T14:43:32;19.20;94.10
9808;DHT22;4943;52.550;13.462;2023-05-07T14:46:02;19.10;94.30
9808;DHT22;4943;52.550;13.462;2023-05-07T14:48:30;19.10;94.40
9808;DHT22;4943;52.550;13.462;2023-05-07T14:50:58;19.00;94.40
9808;DHT22;4943;52.550;13.462;2023-05-07T14:53:26;19.00;94.60
9808;DHT22;4943;52.550;13.462;2023-05-07T14:55:55;18.90;94.60
9808;DHT22;4943;52.550;13.462;2023-05-07T14:58:23;18.90;95.00
9808;DHT22;4943;52.550;13.462;2023-05-07T15:00:51;19.00;95.20
9808;DHT22;4943;52.550;13.462;2023-05-07T15:03:21;19.10;95.40
9808;DHT22;4943;52.550;13.462;2023-05-07T15:05:50;19.30;94.90
9808;DHT22;4943;52.550;13.462;2023-05-07T15:08:18;19.30;95.10
9808;DHT22;4943;52.550;13.462;2023-05-07T15:10:46;19.40;95.30
9808;DHT22;4943;52.550;13.462;2023-05-07T15:13:14;19.60;95.30
9808;DHT22;4943;52.550;13.462;2023-05-07T15:15:43;19.70;95.40
9808;DHT22;4943;52.550;13.462;2023-05-07T15:18:12;19.90;95.00
9808;DHT22;4943;52.550;13.462;2023-05-07T15:20:41;20.10;95.30
9808;DHT22;4943;52.550;13.462;2023-05-07T15:23:09;20.30;95.40
9808;DHT22;4943;52.550;13.462;2023-05-07T15:25:39;20.60;96.20
9808;DHT22;4943;52.550;13.462;2023-05-07T15:28:07;21.00;95.80
9808;DHT22;4943;52.550;13.462;2023-05-07T15:30:35;21.30;94.70
9808;DHT22;4943;52.550;13.462;2023-05-07T15:33:03;21.40;93.90
9808;DHT22;4943;52.550;13.462;2023-05-07T15:35:31;21.30;93.80
9808;DHT22;4943;52.550;13.462;2023-05-07T15:38:00;21.30;94.00
9808;DHT22;4943;52.550;13.462;2023-05-07T15:40:30;21.30;93.40
9808;DHT22;4943;52.550;13.462;2023-05-07T15:42:59;21.20;93.00
9808;DHT22;4943;52.550;13.462;2023-05-07T15:45:28;20.90;92.80
9808;DHT22;4943;52.550;13.462;2023-05-07T15:47:56;20.90;93.30
9808;DHT22;4943;52.550;13.462;2023-05-07T15:50:24;21.00;94.00
9808;DHT22;4943;52.550;13.462;2023-05-07T15:52:53;21.30;94.60
9808;DHT22;4943;52.550;13.462;2023-05-07T15:55:22;21.70;94.40
9808;DHT22;4943;52.550;13.462;2023-05-07T15:57:50;22.20;94.50